KFRI/FRI METAR and TAF weather

Enter ICAO airport designator
Station Type Date Time Source
KFRI METAR 2019/04/25 01:56 UTC NOAA

KFRI 250156Z AUTO 20005KT 10SM CLR 18/08 A2980 RMK AO2 SLP088 T01830080


Station Type Date Time Source
KFRI Decoded METAR 2019/04/25 01:56 UTC NOAA

Fort Riley, Marshall AAF Ft Riley, KS, United States (KFRI) 39-03-20N 096-45-51W
Apr 24, 2019 - 09:56 PM EDT / 2019.04.25 0156 UTC
Wind: from the SSW (200 degrees) at 6 MPH (5 KT):0
Visibility: 10 mile(s):0
Sky conditions: clear
Temperature: 64.9 F (18.3 C)
Dew Point: 46.4 F (8.0 C)
Relative Humidity: 50%
Pressure (altimeter): 29.8 in. Hg (1009 hPa)
ob: KFRI 250156Z AUTO 20005KT 10SM CLR 18/08 A2980 RMK AO2 SLP088 T01830080
cycle: 2

Station Type Date Time Source
KFRI TAF 2019/04/25 00:06 UTC NOAA

TAF TAF KFRI 250000Z 2500/2606 VRB06KT 9999 FEW030 QNH2978INS
BECMG 2514/2515 35015G25KT 9999 BKN035 BKN160 QNH2987INS
BECMG 2523/2524 35009KT 9999 FEW030 QNH2986INS TX22/2521Z TN07/2509Z

Example: see airport list